This is the latest recevied weather packets stored in our database for station/object KO6LQJ. If no packets are shown the sender has not sent any weather packets the latest 10 day(s).
| Time | Temp. | Humidity | Pressure | Rain* | Wind** | Luminosity | Snow |
|---|---|---|---|---|---|---|---|
| 1777995409 | 16.67° C | 58% | 1015.8 hPa | 0 mm | - | 141 W/m² | - |
| 1777995106 | 16.67° C | 57% | 1015.6 hPa | 0 mm | - | 137 W/m² | - |
| 1777994803 | 16.67° C | 56% | 1015.7 hPa | 0 mm | - | 174 W/m² | - |
| 1777994498 | 17.22° C | 56% | 1015.9 hPa | 0 mm | - | 245 W/m² | - |
| 1777994194 | 16.67° C | 58% | 1015.6 hPa | 0 mm | - | 95 W/m² | - |
| 1777993892 | 17.22° C | 57% | 1015.7 hPa | 0 mm | - | 149 W/m² | - |
| 1777993587 | 16.67° C | 56% | 1015.8 hPa | 0 mm | - | 176 W/m² | - |
| 1777993285 | 16.11° C | 60% | 1015.6 hPa | 0 mm | - | 189 W/m² | - |
| 1777992980 | 16.11° C | 60% | 1015.8 hPa | 0 mm | - | 190 W/m² | - |
| 1777992679 | 15.56° C | 62% | 1015.6 hPa | 0 mm | - | 173 W/m² | - |
| 1777992376 | 15.56° C | 61% | 1015.6 hPa | 0 mm | - | 134 W/m² | - |
| 1777992074 | 15.56° C | 62% | 1015.8 hPa | 0 mm | - | 144 W/m² | - |
| 1777991771 | 15° C | 64% | 1015.8 hPa | 0 mm | - | 131 W/m² | - |
| 1777991468 | 13.89° C | 66% | 1015.7 hPa | 0 mm | - | 137 W/m² | - |
| 1777991165 | 13.33° C | 69% | 1015.5 hPa | 0 mm | - | 104 W/m² | - |
| 1777990862 | 12.78° C | 70% | 1015.6 hPa | 0 mm | - | 87 W/m² | - |
| 1777990560 | 12.78° C | 71% | 1015.9 hPa | 0 mm | - | 73 W/m² | - |
| 1777989953 | 12.22° C | 72% | 1015.4 hPa | 0 mm | - | 34 W/m² | - |
| 1777989650 | 12.22° C | 73% | 1015.6 hPa | 0 mm | - | 33 W/m² | - |
| 1777989346 | 12.22° C | 73% | 1015.5 hPa | 0 mm | - | 24 W/m² | - |
| 1777989042 | 11.67° C | 73% | 1015.5 hPa | 0 mm | - | 32 W/m² | - |
| 1777988738 | 11.11° C | 75% | 1015.6 hPa | 0 mm | - | 26 W/m² | - |
| 1777988436 | 10.56° C | 75% | 1015.7 hPa | 0 mm | - | 16 W/m² | - |
| 1777988133 | 10.56° C | 75% | 1015.5 hPa | 0 mm | - | 12 W/m² | - |
| 1777987829 | 10.56° C | 75% | 1015.4 hPa | 0 mm | - | 11 W/m² | - |
* Rain latest hour (hover to see other rain measurements)
** Current wind speed in m/s (hover to see current wind gust speed)